Time;durP1;ratioP1;P1;durP2;ratioP2;P2;SDS_P1;SDS_P2;PMS_P1;PMS_P2;Temp;Humidity;BMP_temperature;BMP_pressure;BME280_temperature;BME280_humidity;BME280_pressure;Samples;Min_cycle;Max_cycle;Signal;HPM_P1;HPM_P2
2022/01/23 00:01:34;;;;;;;15.27;10.98;;;;;;;-2.03;53.13;101080.25;5066985;28;20028;-73
2022/01/23 00:03:59;;;;;;;13.05;9.30;;;;;;;-2.07;51.43;101068.88;5064257;28;20063;-72
2022/01/23 00:06:25;;;;;;;14.52;8.98;;;;;;;-1.98;50.63;101082.28;5060906;28;20475;-72
2022/01/23 00:08:56;;;;;;;19.15;10.23;;;;;;;-1.91;49.94;101084.44;5057676;28;20041;-73
2022/01/23 00:11:25;;;;;;;12.43;8.52;;;;;;;-2.13;51.30;101089.97;5063613;28;20040;-72
2022/01/23 00:19:10;;;;;;;12.15;8.48;;;;;;;-1.97;49.93;101093.47;5050531;28;20375;-73
2022/01/23 00:21:37;;;;;;;14.85;9.43;;;;;;;-1.97;50.28;101078.03;5066616;28;20033;-71
2022/01/23 00:31:57;;;;;;;12.40;7.30;;;;;;;-2.64;53.96;101083.34;5049690;28;20044;-72
2022/01/23 00:35:02;;;;;;;14.20;8.90;;;;;;;-2.31;53.37;101100.78;5059935;28;20049;-72
2022/01/23 00:37:51;;;;;;;8.85;7.28;;;;;;;-2.33;52.32;101110.97;5070250;28;20469;-72
2022/01/23 00:40:17;;;;;;;12.10;8.25;;;;;;;-2.41;52.70;101094.16;5050870;28;20074;-72
2022/01/23 00:42:44;;;;;;;13.68;8.50;;;;;;;-2.50;52.21;101109.03;5051923;28;20365;-75
2022/01/23 00:47:56;;;;;;;14.05;8.23;;;;;;;-2.45;53.55;101118.78;5063545;28;20119;-73
2022/01/23 00:50:21;;;;;;;12.90;8.15;;;;;;;-2.52;52.80;101118.31;5067119;28;20048;-71
2022/01/23 00:52:47;;;;;;;16.30;8.23;;;;;;;-2.43;52.63;101126.59;5061715;28;20074;-72
2022/01/23 00:55:13;;;;;;;13.35;8.27;;;;;;;-2.48;53.08;101105.75;5068309;28;20059;-71
2022/01/23 00:57:38;;;;;;;15.73;9.32;;;;;;;-2.68;53.31;101093.31;5068893;28;20024;-73
2022/01/23 01:00:05;;;;;;;15.48;9.63;;;;;;;-2.39;53.64;101090.91;5053472;28;20048;-72
2022/01/23 01:02:31;;;;;;;15.68;9.93;;;;;;;-2.46;52.64;101091.31;5063589;28;20108;-73
2022/01/23 01:04:57;;;;;;;14.80;9.27;;;;;;;-2.66;53.07;101091.72;5062652;28;20048;-73
2022/01/23 01:07:23;;;;;;;13.07;8.82;;;;;;;-2.52;53.31;101114.06;5068607;28;20037;-73
2022/01/23 01:09:51;;;;;;;17.13;8.63;;;;;;;-2.68;52.66;101111.28;5066288;28;20473;-73
2022/01/23 01:12:23;;;;;;;18.48;10.82;;;;;;;-2.88;53.18;101092.00;5064604;28;20082;-72
2022/01/23 01:31:11;;;;;;;14.70;10.32;;;;;;;-2.64;54.56;101109.03;5063424;28;20051;-73
2022/01/23 01:33:54;;;;;;;18.40;11.95;;;;;;;-2.99;55.14;101089.66;5063013;28;20024;-73
2022/01/23 01:36:53;;;;;;;17.80;10.65;;;;;;;-3.00;54.54;101079.28;5061809;28;20115;-73
2022/01/23 01:39:12;;;;;;;19.13;12.95;;;;;;;-2.72;55.13;101106.75;5055780;28;20555;-73
2022/01/23 01:41:39;;;;;;;21.08;10.48;;;;;;;-2.74;54.08;101103.19;5063096;28;20500;-73
2022/01/23 01:44:05;;;;;;;13.90;11.23;;;;;;;-2.86;54.17;101083.63;5069811;28;20041;-73
2022/01/23 01:46:31;;;;;;;17.73;10.35;;;;;;;-2.84;54.16;101106.84;5055571;28;20102;-72
2022/01/23 01:48:57;;;;;;;25.63;13.38;;;;;;;-2.93;54.82;101108.81;5063137;28;20066;-76
2022/01/23 01:51:24;;;;;;;15.65;10.20;;;;;;;-3.14;55.33;101088.63;5059227;28;20071;-72
2022/01/23 01:53:53;;;;;;;19.52;12.18;;;;;;;-3.17;55.38;101105.53;5065232;28;20416;-80
2022/01/23 01:56:19;;;;;;;17.55;12.27;;;;;;;-2.93;55.13;101112.25;5062669;28;20045;-74
2022/01/23 02:09:45;;;;;;;21.33;13.15;;;;;;;-3.02;54.46;101094.59;5058875;28;20093;-72
2022/01/23 02:18:19;;;;;;;21.13;13.48;;;;;;;-2.97;54.97;101100.91;4996330;28;20003;-74
2022/01/23 02:24:05;;;;;;;19.25;14.15;;;;;;;-2.94;55.73;101112.19;5058174;28;20056;-72
2022/01/23 02:51:26;;;;;;;22.67;14.35;;;;;;;-2.95;55.71;101105.25;5062902;28;20101;-72
2022/01/23 02:54:24;;;;;;;23.13;14.63;;;;;;;-3.11;56.88;101117.09;5054516;28;20392;-73
2022/01/23 02:56:53;;;;;;;22.73;14.10;;;;;;;-3.06;56.24;101084.03;5063770;28;20048;-72
2022/01/23 02:59:31;;;;;;;22.17;13.60;;;;;;;-3.00;56.02;101110.06;5061129;28;20051;-72
2022/01/23 03:04:25;;;;;;;33.58;14.07;;;;;;;-2.82;56.31;101100.13;5061546;28;20045;-73
2022/01/23 03:10:05;;;;;;;;;;;;;;;-2.89;55.43;101121.06;5069419;28;20041;-69
2022/01/23 03:13:26;;;;;;;18.83;13.32;;;;;;;-2.76;54.76;101123.66;5060421;28;19916;-73
2022/01/23 03:31:30;;;;;;;22.23;15.75;;;;;;;-2.84;54.82;101104.28;5071284;28;20045;-73
2022/01/23 03:34:17;;;;;;;24.88;17.33;;;;;;;-2.78;54.48;101128.69;5068703;28;20473;-73
2022/01/23 03:37:04;;;;;;;25.75;16.55;;;;;;;-2.69;54.23;101130.03;5064966;28;20106;-73
2022/01/23 03:39:52;;;;;;;28.75;16.02;;;;;;;-2.53;54.53;101137.06;5051746;28;20036;-73
2022/01/23 03:42:18;;;;;;;21.52;14.73;;;;;;;-2.70;53.23;101144.56;5061548;28;20049;-75
2022/01/23 03:44:59;;;;;;;22.63;14.32;;;;;;;-2.68;53.83;101129.28;5061640;28;20052;-76
2022/01/23 03:47:41;;;;;;;28.30;15.30;;;;;;;-2.73;53.48;101134.09;5051730;28;20033;-74
2022/01/23 03:50:11;;;;;;;21.90;14.27;;;;;;;-2.90;53.58;101151.00;5065162;28;20068;-73
2022/01/23 03:52:37;;;;;;;27.58;16.63;;;;;;;-2.56;53.44;101148.91;5060980;28;20040;-74
2022/01/23 03:55:05;;;;;;;22.83;15.88;;;;;;;-2.58;52.87;101147.03;5068005;28;20016;-73
2022/01/23 03:57:31;;;;;;;18.63;13.65;;;;;;;-2.52;52.89;101151.72;5070388;28;20028;-73
2022/01/23 03:59:57;;;;;;;24.40;14.23;;;;;;;-2.76;53.01;101146.75;5063926;28;20036;-74
2022/01/23 04:02:22;;;;;;;22.63;15.50;;;;;;;-2.57;52.92;101124.03;5062383;28;20028;-73
2022/01/23 04:04:48;;;;;;;24.23;16.02;;;;;;;-2.48;53.12;101134.03;5066553;28;20044;-73
2022/01/23 04:07:21;;;;;;;23.02;14.73;;;;;;;-2.53;53.18;101149.91;5067203;28;20037;-73
2022/01/23 04:09:47;;;;;;;;;;;;;;;-2.55;52.79;101145.56;5061224;28;20040;-71
2022/01/23 04:15:49;;;;;;;21.42;12.63;;;;;;;-2.09;52.08;101146.72;5064923;28;20051;-73
2022/01/23 04:20:42;;;;;;;27.55;14.60;;;;;;;-2.24;52.71;101156.94;5061727;28;20063;-74
2022/01/23 04:34:22;;;;;;;19.98;12.75;;;;;;;-2.38;53.17;101163.75;5069383;28;20486;-73
2022/01/23 05:04:13;;;;;;;20.52;13.65;;;;;;;-2.34;51.90;101187.19;5062906;28;20384;-71
2022/01/23 05:07:00;;;;;;;19.95;12.88;;;;;;;-2.25;51.67;101186.84;5049709;28;20461;-72
2022/01/23 05:09:27;;;;;;;25.73;12.70;;;;;;;-2.23;52.55;101197.25;5051056;28;20041;-71
2022/01/23 05:11:57;;;;;;;18.58;12.40;;;;;;;-1.96;51.89;101186.13;5063977;28;20483;-73
2022/01/23 05:14:29;;;;;;;20.25;12.82;;;;;;;-2.22;52.67;101166.50;5050892;28;20127;-75
2022/01/23 05:16:56;;;;;;;18.75;10.73;;;;;;;-2.02;52.04;101178.03;5044799;28;20044;-74
2022/01/23 05:19:21;;;;;;;21.58;12.68;;;;;;;-1.94;51.44;101206.81;5067698;28;20041;-73
2022/01/23 05:24:13;;;;;;;20.50;12.15;;;;;;;-2.09;51.83;101180.13;5069201;28;20075;-72
2022/01/23 05:26:44;;;;;;;20.63;13.93;;;;;;;-1.90;51.92;101177.91;5039347;28;20050;-74
2022/01/23 05:29:11;;;;;;;19.08;12.40;;;;;;;-1.84;52.25;101195.41;5034870;28;20046;-73
2022/01/23 05:31:37;;;;;;;22.10;12.88;;;;;;;-2.12;52.13;101206.53;5046131;28;20118;-72
2022/01/23 05:34:02;;;;;;;18.27;12.05;;;;;;;-2.13;52.28;101200.50;5062835;28;20455;-72
2022/01/23 05:36:28;;;;;;;21.73;12.25;;;;;;;-1.89;52.07;101189.09;5061934;28;20025;-72
2022/01/23 05:38:53;;;;;;;20.83;11.52;;;;;;;-2.14;52.48;101183.28;5054914;28;20471;-72
2022/01/23 05:41:19;;;;;;;22.35;12.32;;;;;;;-2.01;52.39;101208.13;5056124;28;20025;-75
2022/01/23 05:43:45;;;;;;;23.13;11.43;;;;;;;-2.14;52.67;101200.41;5057821;28;20044;-72
2022/01/23 05:46:11;;;;;;;15.52;11.30;;;;;;;-2.08;52.13;101193.09;5052051;28;20045;-74
2022/01/23 05:48:37;;;;;;;18.63;11.02;;;;;;;-2.05;52.12;101205.25;5067929;28;20448;-74
2022/01/23 05:51:03;;;;;;;20.52;11.55;;;;;;;-1.78;51.98;101183.84;5065518;28;20084;-73
2022/01/23 05:53:28;;;;;;;23.58;13.20;;;;;;;-1.51;52.40;101201.75;5062327;28;20401;-75
2022/01/23 05:55:54;;;;;;;16.63;11.07;;;;;;;-1.87;51.80;101205.50;5049256;28;20083;-73
2022/01/23 05:58:19;;;;;;;16.25;11.18;;;;;;;-1.86;51.74;101204.72;5056273;28;20029;-72
2022/01/23 06:00:44;;;;;;;15.90;10.30;;;;;;;-1.75;52.24;101202.03;5049690;28;20031;-73
2022/01/23 06:03:10;;;;;;;16.88;11.20;;;;;;;-1.94;51.94;101182.00;5057837;28;20422;-75
2022/01/23 06:05:36;;;;;;;13.45;10.52;;;;;;;-1.91;51.08;101202.75;5051630;28;20025;-72
2022/01/23 06:08:01;;;;;;;16.30;10.95;;;;;;;-1.71;51.05;101214.28;5065522;28;20461;-72
2022/01/23 06:10:29;;;;;;;14.30;9.50;;;;;;;-1.78;50.99;101185.50;5053800;28;20083;-73
2022/01/23 06:12:54;;;;;;;19.33;12.48;;;;;;;-1.62;50.66;101184.75;5068927;28;20035;-73
2022/01/23 06:15:20;;;;;;;21.13;11.73;;;;;;;-1.81;51.31;101211.03;5080549;28;20032;-73
2022/01/23 06:17:45;;;;;;;20.67;11.05;;;;;;;-1.81;51.94;101203.31;5067560;28;20072;-74
2022/01/23 06:20:13;;;;;;;19.55;12.40;;;;;;;-1.92;51.54;101194.91;5069501;28;20050;-75
2022/01/23 06:22:39;;;;;;;17.33;12.25;;;;;;;-1.80;50.81;101193.13;5067570;28;20049;-71
2022/01/23 06:25:08;;;;;;;19.17;12.23;;;;;;;-1.62;51.06;101200.19;5067350;28;20039;-73
2022/01/23 06:28:00;;;;;;;16.80;11.05;;;;;;;-1.75;50.79;101227.75;5067812;28;20048;-73
2022/01/23 06:30:26;;;;;;;16.75;10.65;;;;;;;-1.79;51.08;101212.03;5063136;28;20067;-72
2022/01/23 06:36:02;;;;;;;18.55;11.68;;;;;;;-1.11;50.28;101217.03;5060238;28;20392;-73
2022/01/23 06:38:28;;;;;;;14.05;10.82;;;;;;;-1.33;50.89;101205.44;5070546;28;20109;-74
2022/01/23 06:40:53;;;;;;;16.38;10.55;;;;;;;-1.50;50.36;101200.94;5070344;28;20052;-74
2022/01/23 06:43:53;;;;;;;19.88;11.13;;;;;;;-1.27;49.76;101221.25;5061253;28;20081;-74
2022/01/23 06:46:19;;;;;;;16.40;10.90;;;;;;;-1.40;50.07;101221.31;5062127;28;20052;-77
2022/01/23 06:53:05;;;;;;;16.23;10.48;;;;;;;-1.24;50.74;101193.91;5015882;28;20622;-73
2022/01/23 06:55:31;;;;;;;15.40;10.32;;;;;;;-1.30;50.28;101210.78;4987459;28;20039;-73
2022/01/23 06:57:56;;;;;;;16.85;11.88;;;;;;;-1.39;50.30;101207.63;4990607;28;20018;-75
2022/01/23 07:00:22;;;;;;;14.98;11.10;;;;;;;-1.22;49.98;101203.50;5000254;28;20558;-73
2022/01/23 07:02:48;;;;;;;17.23;9.63;;;;;;;-1.28;50.21;101206.63;4995392;28;20070;-73
2022/01/23 07:05:14;;;;;;;14.80;10.68;;;;;;;-1.62;50.39;101189.91;4988285;28;20458;-80
2022/01/23 07:07:39;;;;;;;15.50;10.80;;;;;;;-1.27;50.79;101186.91;4987469;28;20047;-74
2022/01/23 07:10:05;;;;;;;17.88;9.93;;;;;;;-1.29;49.86;101185.91;4986343;28;20045;-74
2022/01/23 07:12:31;;;;;;;17.30;10.73;;;;;;;-1.14;49.87;101212.59;4997046;28;20117;-73
2022/01/23 07:14:56;;;;;;;17.55;11.32;;;;;;;-0.84;49.76;101210.06;4988429;28;20089;-73
2022/01/23 07:17:22;;;;;;;17.73;9.30;;;;;;;-0.93;50.02;101196.66;5006535;28;20481;-73
2022/01/23 07:19:48;;;;;;;14.23;9.85;;;;;;;-0.98;49.51;101201.53;4989860;28;20122;-73
2022/01/23 07:22:13;;;;;;;16.20;10.68;;;;;;;-0.78;49.25;101212.09;4988829;28;20042;-75
2022/01/23 07:24:39;;;;;;;13.20;8.60;;;;;;;-1.20;49.23;101203.59;4992851;28;20507;-73
2022/01/23 07:27:13;;;;;;;14.25;10.20;;;;;;;-0.66;48.92;101215.38;4996687;28;20042;-74
2022/01/23 07:29:41;;;;;;;16.75;10.60;;;;;;;-0.88;49.02;101187.50;4985357;28;20390;-76
2022/01/23 07:32:08;;;;;;;14.73;10.60;;;;;;;-0.78;48.59;101207.81;4987199;28;20050;-74
2022/01/23 07:34:34;;;;;;;19.15;10.57;;;;;;;-0.57;49.53;101215.03;4994648;28;20133;-73
2022/01/23 07:36:59;;;;;;;16.50;10.80;;;;;;;-0.71;48.95;101191.91;4992764;28;20455;-74
2022/01/23 07:39:25;;;;;;;15.00;9.60;;;;;;;-0.62;48.38;101183.84;4992397;28;20169;-73
2022/01/23 07:41:50;;;;;;;13.43;8.93;;;;;;;-0.29;47.78;101199.44;4987646;28;20389;-73
2022/01/23 07:44:15;;;;;;;13.50;9.32;;;;;;;-0.17;47.86;101194.09;4986785;28;20042;-73
2022/01/23 07:46:41;;;;;;;12.13;8.55;;;;;;;-0.29;47.68;101178.81;4984569;28;20153;-74
2022/01/23 07:49:06;;;;;;;15.95;9.88;;;;;;;-0.18;47.11;101205.22;4986923;28;20046;-74
2022/01/23 07:51:32;;;;;;;14.70;9.38;;;;;;;-0.17;47.04;101200.13;4993300;28;20101;-73
2022/01/23 07:53:57;;;;;;;14.30;9.75;;;;;;;-0.16;47.43;101203.63;5002661;28;20100;-74
2022/01/23 07:56:23;;;;;;;26.80;11.30;;;;;;;-0.11;46.76;101186.72;4993073;28;20035;-74
2022/01/23 07:58:48;;;;;;;17.17;10.80;;;;;;;0.30;47.03;101206.13;4985224;28;20042;-75
2022/01/23 08:01:31;;;;;;;14.95;8.95;;;;;;;0.23;45.67;101192.00;4982478;28;20085;-73
2022/01/23 08:03:57;;;;;;;15.23;9.60;;;;;;;0.25;46.13;101211.03;4975731;28;20019;-73
2022/01/23 08:06:28;;;;;;;13.00;8.68;;;;;;;0.23;45.69;101201.44;4983276;28;20045;-74
2022/01/23 08:08:56;;;;;;;13.35;8.32;;;;;;;0.12;44.69;101213.78;4973363;28;20509;-72
2022/01/23 08:11:22;;;;;;;13.70;8.65;;;;;;;0.49;45.44;101195.09;4972771;28;20093;-72
2022/01/23 08:13:47;;;;;;;14.35;8.30;;;;;;;0.43;45.06;101208.56;4972498;28;20054;-73
2022/01/23 08:16:13;;;;;;;11.60;7.70;;;;;;;0.61;44.64;101213.84;4964851;28;20039;-72
2022/01/23 08:18:38;;;;;;;17.05;12.93;;;;;;;0.53;45.18;101192.75;4965692;28;20023;-73
2022/01/23 08:21:05;;;;;;;17.35;12.75;;;;;;;0.44;46.10;101201.72;4971582;28;20078;-73
2022/01/23 08:23:31;;;;;;;24.20;14.90;;;;;;;0.38;45.76;101217.78;4974201;28;20042;-73
2022/01/23 08:25:57;;;;;;;16.58;11.55;;;;;;;0.44;46.24;101197.44;4972021;28;20130;-72
2022/01/23 08:28:22;;;;;;;17.63;12.77;;;;;;;0.27;45.59;101196.53;4986294;28;20169;-72
2022/01/23 08:30:48;;;;;;;20.15;11.52;;;;;;;0.30;45.90;101198.38;4978008;28;20120;-74
2022/01/23 08:33:13;;;;;;;17.92;10.88;;;;;;;0.55;46.06;101213.50;4968281;28;20035;-73
2022/01/23 08:35:42;;;;;;;15.27;11.00;;;;;;;0.39;46.01;101201.47;4971605;28;20039;-72
2022/01/23 08:38:09;;;;;;;22.02;12.65;;;;;;;0.11;46.61;101207.69;4972476;28;20088;-73
2022/01/23 08:43:13;;;;;;;16.75;11.60;;;;;;;0.73;46.81;101222.22;4970236;28;20031;-72
2022/01/23 08:45:39;;;;;;;18.42;13.98;;;;;;;0.45;47.58;101196.63;4965080;28;20512;-73
2022/01/23 08:48:05;;;;;;;19.17;13.02;;;;;;;0.78;46.72;101199.22;4978733;28;20050;-74
2022/01/23 08:50:31;;;;;;;18.48;13.60;;;;;;;0.60;45.87;101217.22;4974937;28;20042;-74
2022/01/23 08:52:56;;;;;;;21.05;12.35;;;;;;;0.53;46.12;101203.09;4977949;28;20054;-73
2022/01/23 08:55:22;;;;;;;21.25;14.45;;;;;;;0.75;46.32;101215.44;4970542;28;20118;-73
2022/01/23 08:57:48;;;;;;;20.63;12.50;;;;;;;1.01;45.93;101210.75;4976131;28;20061;-72
2022/01/23 09:00:14;;;;;;;21.20;10.63;;;;;;;0.55;45.00;101198.00;4979710;28;20065;-73
2022/01/23 09:02:40;;;;;;;17.00;11.07;;;;;;;0.87;44.89;101197.13;4979059;28;20050;-73
2022/01/23 09:05:06;;;;;;;19.52;12.38;;;;;;;0.59;44.70;101212.88;4980908;28;20057;-78
2022/01/23 09:07:32;;;;;;;14.63;10.40;;;;;;;0.58;44.45;101198.16;4988641;28;20070;-79
2022/01/23 09:10:02;;;;;;;15.00;10.25;;;;;;;0.84;44.00;101209.84;4980818;28;20207;-73
2022/01/23 09:13:06;;;;;;;22.75;14.32;;;;;;;0.82;45.87;101208.91;4975317;28;20082;-73
2022/01/23 09:15:21;;;;;;;18.95;12.20;;;;;;;0.77;46.81;101193.19;4967653;28;20564;-72
2022/01/23 09:17:46;;;;;;;18.23;12.77;;;;;;;0.95;46.64;101210.41;4969344;28;20137;-73
2022/01/23 09:20:12;;;;;;;21.48;14.20;;;;;;;0.83;46.39;101200.34;5020347;28;20046;-73
2022/01/23 09:22:37;;;;;;;21.17;12.50;;;;;;;0.98;45.08;101187.31;4994561;28;20146;-73
2022/01/23 09:25:03;;;;;;;18.88;13.68;;;;;;;1.19;44.55;101193.56;4981030;28;20476;-74
2022/01/23 09:27:29;;;;;;;26.00;9.98;;;;;;;1.40;44.72;101187.69;4980175;28;20033;-72
2022/01/23 09:30:06;;;;;;;16.45;10.63;;;;;;;1.37;44.97;101160.00;4992322;28;20049;-72
2022/01/23 09:32:32;;;;;;;21.88;14.05;;;;;;;1.30;45.09;101178.59;4966413;28;20038;-76
2022/01/23 09:34:57;;;;;;;17.95;12.95;;;;;;;1.09;45.42;101146.53;4979175;28;20039;-72
2022/01/23 09:37:23;;;;;;;16.20;11.57;;;;;;;1.35;46.62;101158.16;4994454;28;20038;-71
2022/01/23 09:39:49;;;;;;;11.68;6.20;;;;;;;1.52;44.77;101148.63;4986546;28;20111;-71
2022/01/23 09:42:21;;;;;;;12.27;6.35;;;;;;;1.13;43.40;101153.63;4973304;28;20102;-71
2022/01/23 09:44:52;;;;;;;9.82;5.68;;;;;;;0.98;43.59;101157.22;4972896;28;20077;-71
2022/01/23 09:47:20;;;;;;;10.50;7.18;;;;;;;1.33;43.72;101160.66;4982832;28;20075;-72
2022/01/23 09:49:47;;;;;;;12.15;7.82;;;;;;;1.16;43.99;101158.94;4986078;28;20038;-72
2022/01/23 09:52:14;;;;;;;11.63;7.03;;;;;;;1.05;43.63;101155.81;4980261;28;20113;-73
2022/01/23 09:54:42;;;;;;;9.57;6.03;;;;;;;1.37;43.90;101156.53;4970974;28;20033;-74
2022/01/23 09:57:09;;;;;;;22.42;10.13;;;;;;;1.52;43.11;101165.03;4962520;28;20075;-73
2022/01/23 09:59:35;;;;;;;7.35;5.38;;;;;;;1.29;43.21;101135.47;4965566;28;20031;-81
2022/01/23 10:02:03;;;;;;;8.65;4.72;;;;;;;1.23;42.84;101153.25;4974288;28;20049;-73
2022/01/23 10:04:29;;;;;;;9.65;6.57;;;;;;;1.19;43.11;101141.00;4969670;28;20039;-79
2022/01/23 10:06:55;;;;;;;10.38;5.03;;;;;;;1.50;42.60;101147.66;4985039;28;20042;-74
2022/01/23 10:09:22;;;;;;;10.85;6.85;;;;;;;1.71;42.95;101138.38;4984589;28;20457;-73
2022/01/23 10:11:49;;;;;;;9.52;7.78;;;;;;;1.43;42.71;101147.38;4987423;28;20042;-73
2022/01/23 10:14:17;;;;;;;13.20;7.15;;;;;;;1.55;42.56;101125.53;4986405;28;20150;-73
2022/01/23 10:16:44;;;;;;;12.02;9.27;;;;;;;1.56;43.91;101127.28;4971728;28;20063;-76
2022/01/23 10:19:10;;;;;;;15.00;8.73;;;;;;;1.60;44.56;101132.66;4977308;28;20031;-74
2022/01/23 10:21:38;;;;;;;14.80;7.25;;;;;;;1.45;44.53;101138.00;4978533;28;20085;-72
2022/01/23 10:24:05;;;;;;;8.25;5.18;;;;;;;1.25;43.35;101125.78;4972174;28;20521;-74
2022/01/23 10:26:45;;;;;;;16.52;5.40;;;;;;;1.43;43.61;101129.28;4992875;28;20438;-73
2022/01/23 10:29:26;;;;;;;11.85;6.05;;;;;;;1.26;43.98;101112.03;4982622;28;20109;-73
2022/01/23 10:32:18;;;;;;;8.68;5.93;;;;;;;1.48;43.86;101135.56;4979024;28;20031;-73
2022/01/23 10:34:49;;;;;;;11.07;6.65;;;;;;;1.64;43.01;101134.59;4977030;28;20034;-76
2022/01/23 10:37:26;;;;;;;11.00;7.95;;;;;;;1.74;44.44;101133.31;4973748;28;20043;-76
2022/01/23 10:39:52;;;;;;;13.13;9.27;;;;;;;1.81;44.43;101144.84;4976866;28;20459;-79
2022/01/23 10:51:28;;;;;;;21.60;14.13;;;;;;;1.63;47.73;101135.41;4971112;28;20046;-73
2022/01/23 10:54:15;;;;;;;17.98;12.13;;;;;;;1.49;48.03;101144.19;4973327;28;20043;-72
2022/01/23 10:56:52;;;;;;;19.60;11.90;;;;;;;1.12;48.88;101146.66;4953741;28;20052;-72
2022/01/23 10:59:18;;;;;;;21.75;12.05;;;;;;;1.41;48.52;101137.78;4970458;28;20491;-72
2022/01/23 11:02:04;;;;;;;13.98;10.65;;;;;;;1.54;47.78;101140.13;4979191;28;20029;-73
2022/01/23 11:04:31;;;;;;;16.63;11.40;;;;;;;1.25;48.71;101113.75;4974580;28;20045;-73
2022/01/23 11:07:08;;;;;;;17.30;12.23;;;;;;;1.43;48.52;101111.19;4984355;28;20035;-72
2022/01/23 11:09:38;;;;;;;15.68;11.02;;;;;;;1.00;49.21;101106.47;4999366;28;20413;-72
2022/01/23 11:12:23;;;;;;;17.27;13.30;;;;;;;1.08;49.26;101122.38;4981148;28;20137;-73
2022/01/23 11:18:03;;;;;;;18.33;12.57;;;;;;;1.08;49.04;101104.31;4976479;28;20052;-73
2022/01/23 11:21:12;;;;;;;16.20;11.68;;;;;;;1.47;48.63;101119.97;4974153;28;20121;-80
2022/01/23 11:23:37;;;;;;;19.95;12.82;;;;;;;1.55;48.79;101120.34;4969462;28;20043;-77
2022/01/23 11:26:03;;;;;;;19.98;13.13;;;;;;;1.29;49.45;101126.81;4971560;28;20043;-73
2022/01/23 11:28:34;;;;;;;15.48;10.15;;;;;;;1.22;48.64;101115.31;4969913;28;20038;-73
2022/01/23 11:30:59;;;;;;;17.30;11.52;;;;;;;1.62;48.26;101118.13;4970640;28;20085;-73
2022/01/23 11:33:25;;;;;;;17.13;12.25;;;;;;;1.52;48.62;101122.75;4979581;28;20027;-73
2022/01/23 11:35:51;;;;;;;16.83;10.48;;;;;;;1.55;48.17;101116.06;4972898;28;20046;-74
2022/01/23 11:38:20;;;;;;;18.15;13.02;;;;;;;1.14;48.17;101094.25;4985394;28;20381;-74
2022/01/23 11:54:47;;;;;;;17.73;12.35;;;;;;;1.22;48.31;101117.91;4975714;28;20043;-72
2022/01/23 11:57:40;;;;;;;33.20;14.55;;;;;;;0.90;48.60;101124.03;4992912;28;20121;-71
2022/01/23 12:00:23;;;;;;;17.05;11.68;;;;;;;1.30;48.47;101126.03;4984071;28;20081;-71
2022/01/23 12:07:39;;;;;;;20.63;13.57;;;;;;;1.29;47.81;101142.31;5029083;28;20050;-73
2022/01/23 12:10:10;;;;;;;18.85;15.98;;;;;;;1.21;49.56;101149.72;5032066;28;20038;-72
2022/01/23 12:12:45;;;;;;;26.08;15.30;;;;;;;1.54;48.73;101159.94;5020959;28;20029;-71
2022/01/23 12:18:16;;;;;;;18.05;10.00;;;;;;;1.31;49.40;101132.94;5038445;28;20052;-72
2022/01/23 12:21:25;;;;;;;18.45;10.73;;;;;;;1.31;49.33;101153.63;5015972;28;20071;-77
2022/01/23 12:24:02;;;;;;;14.85;10.55;;;;;;;1.43;49.12;101141.34;5032806;28;20087;-71
2022/01/23 12:26:28;;;;;;;17.42;11.15;;;;;;;1.29;48.79;101132.91;5045363;28;20134;-71
2022/01/23 12:28:54;;;;;;;23.98;10.38;;;;;;;0.21;52.29;101160.06;5054891;28;20128;-71
2022/01/23 12:31:23;;;;;;;16.52;10.90;;;;;;;0.64;52.57;101154.59;5047426;28;20409;-73
2022/01/23 12:33:58;;;;;;;13.65;10.68;;;;;;;0.73;53.03;101152.50;5044626;28;20032;-72
2022/01/23 12:36:32;;;;;;;18.42;13.43;;;;;;;0.97;53.22;101150.25;5047718;28;20053;-72
2022/01/23 12:39:16;;;;;;;17.65;11.10;;;;;;;0.86;54.25;101135.03;5049629;28;20029;-70
2022/01/23 12:42:37;;;;;;;14.25;9.98;;;;;;;0.62;55.26;101128.69;5046528;28;20037;-73
2022/01/23 12:45:40;;;;;;;15.00;9.30;;;;;;;0.34;56.44;101115.16;5029822;28;20068;-71
2022/01/23 12:48:24;;;;;;;14.80;11.20;;;;;;;0.56;56.25;101127.47;5044640;28;20037;-72
2022/01/23 12:54:18;;;;;;;15.93;11.88;;;;;;;0.57;56.77;101108.59;5046279;28;20048;-73
2022/01/23 12:56:45;;;;;;;13.63;10.20;;;;;;;0.47;57.68;101114.09;5045198;28;20045;-73
2022/01/23 12:59:19;;;;;;;19.08;11.63;;;;;;;0.61;57.24;101088.19;5048768;28;20160;-71
2022/01/23 13:02:17;;;;;;;16.80;10.73;;;;;;;0.65;57.95;101114.16;5048188;28;20033;-72
2022/01/23 13:04:49;;;;;;;15.77;11.05;;;;;;;0.39;58.35;101113.69;5064289;28;20040;-72
2022/01/23 13:07:32;;;;;;;17.67;11.60;;;;;;;0.66;57.53;101122.00;5062064;28;20067;-71
2022/01/23 13:12:56;;;;;;;15.82;11.93;;;;;;;0.35;58.67;101132.41;5033978;28;20041;-73
2022/01/23 13:15:45;;;;;;;16.45;10.68;;;;;;;0.25;59.50;101132.72;5025393;28;20127;-73
2022/01/23 13:18:30;;;;;;;15.60;10.38;;;;;;;0.44;58.94;101132.00;5042993;28;20505;-74
2022/01/23 13:30:11;;;;;;;13.88;8.10;;;;;;;0.19;56.40;101110.09;5027352;28;20179;-74
2022/01/23 13:32:46;;;;;;;21.02;13.07;;;;;;;0.56;56.63;101105.16;5038965;28;20040;-72
2022/01/23 13:35:15;;;;;;;23.05;14.73;;;;;;;0.62;56.16;101125.22;5038762;28;20388;-75
2022/01/23 13:37:47;;;;;;;19.10;11.65;;;;;;;0.45;56.57;101134.69;5031039;28;20417;-74
2022/01/23 13:40:13;;;;;;;15.23;8.93;;;;;;;0.62;55.23;101138.13;5031630;28;20037;-72
2022/01/23 13:53:52;;;;;;;23.13;9.30;;;;;;;0.79;53.45;101137.28;5035846;28;20040;-73
2022/01/23 13:59:26;;;;;;;13.73;9.25;;;;;;;0.61;53.57;101149.28;5029643;28;20140;-73
2022/01/23 14:04:27;;;;;;;17.98;8.50;;;;;;;0.73;54.30;101144.75;5031531;28;20053;-72
2022/01/23 14:06:53;;;;;;;22.45;10.27;;;;;;;0.39;55.39;101150.72;5012190;28;20108;-72
2022/01/23 14:09:20;;;;;;;14.02;11.18;;;;;;;0.66;55.02;101136.59;5031957;28;20124;-71
2022/01/23 14:11:46;;;;;;;15.98;12.38;;;;;;;0.55;54.43;101139.50;5046892;28;20040;-72
2022/01/23 14:14:22;;;;;;;15.65;11.60;;;;;;;0.46;54.12;101136.44;5030336;28;20061;-71
2022/01/23 14:16:51;;;;;;;31.08;19.60;;;;;;;0.70;53.74;101154.91;5012366;28;20045;-70
2022/01/23 14:19:24;;;;;;;23.55;15.48;;;;;;;0.93;52.88;101163.81;5013710;28;20373;-71
2022/01/23 14:21:53;;;;;;;20.15;12.85;;;;;;;0.81;53.02;101155.47;5033303;28;20026;-71
2022/01/23 14:24:28;;;;;;;19.23;10.10;;;;;;;0.87;52.31;101145.44;5030230;28;20129;-73
2022/01/23 14:27:06;;;;;;;14.43;7.97;;;;;;;0.67;49.68;101170.25;5027093;28;20139;-72
2022/01/23 14:29:35;;;;;;;11.63;7.82;;;;;;;0.54;51.13;101147.16;5024174;28;20117;-71
2022/01/23 14:35:31;;;;;;;14.38;9.48;;;;;;;0.92;50.59;101166.34;5036397;28;20488;-72
2022/01/23 14:38:22;;;;;;;14.95;9.02;;;;;;;0.86;50.52;101174.66;5029774;28;20462;-72
2022/01/23 14:44:20;;;;;;;10.15;7.55;;;;;;;0.78;49.21;101160.47;5054013;28;20592;-72
2022/01/23 14:46:48;;;;;;;9.70;5.95;;;;;;;0.64;49.15;101190.75;5050751;28;20037;-72
2022/01/23 14:49:21;;;;;;;14.05;8.77;;;;;;;-0.11;49.90;101173.81;5028857;28;20048;-74
2022/01/23 14:52:01;;;;;;;11.60;9.57;;;;;;;0.24;51.08;101198.06;5041017;28;20111;-72
2022/01/23 14:54:30;;;;;;;16.75;10.75;;;;;;;0.07;50.98;101192.88;5049168;28;20120;-71
2022/01/23 14:57:01;;;;;;;18.27;10.52;;;;;;;0.10;50.95;101180.13;5032710;28;20048;-71
2022/01/23 14:59:30;;;;;;;18.95;10.40;;;;;;;0.52;50.55;101201.31;5029302;28;20048;-73
2022/01/23 15:01:56;;;;;;;12.13;8.88;;;;;;;0.45;49.70;101191.47;5030252;28;20070;-73
2022/01/23 15:04:28;;;;;;;14.75;11.30;;;;;;;0.59;50.55;101195.66;5029982;28;20041;-72
2022/01/23 15:06:54;;;;;;;16.65;9.55;;;;;;;0.48;50.19;101188.16;5017841;28;20037;-72
2022/01/23 15:09:22;;;;;;;13.23;9.45;;;;;;;0.52;51.35;101209.06;5042906;28;20029;-72
2022/01/23 15:11:53;;;;;;;21.00;8.95;;;;;;;0.50;50.13;101214.97;5049721;28;20049;-71
2022/01/23 15:14:19;;;;;;;13.27;8.45;;;;;;;0.47;50.42;101217.34;5024816;28;20045;-72
2022/01/23 15:16:45;;;;;;;20.02;10.23;;;;;;;0.45;51.07;101226.75;5026008;28;20041;-71
2022/01/23 15:19:12;;;;;;;13.10;8.50;;;;;;;0.37;51.93;101222.03;5033985;28;20187;-71
2022/01/23 15:21:37;;;;;;;28.48;11.55;;;;;;;0.35;52.17;101220.16;5047657;28;20036;-74